Time;durP1;ratioP1;P1;durP2;ratioP2;P2;SDS_P1;SDS_P2;PMS_P1;PMS_P2;Temp;Humidity;BMP_temperature;BMP_pressure;BME280_temperature;BME280_humidity;BME280_pressure;Samples;Min_cycle;Max_cycle;Signal;HPM_P1;HPM_P2
2022/10/22 00:00:22;;;;;;;3.65;0.50;;;14.60;1.00;;;;;;5091471;28;20871;-56
2022/10/22 00:02:48;;;;;;;3.80;0.63;;;14.60;1.00;;;;;;5091881;28;20397;-55
2022/10/22 00:05:14;;;;;;;4.03;0.60;;;14.60;1.00;;;;;;5091161;28;20386;-56
2022/10/22 00:07:40;;;;;;;5.00;0.70;;;14.50;1.00;;;;;;5092113;28;20377;-55
2022/10/22 00:10:06;;;;;;;4.80;0.70;;;14.40;1.00;;;;;;5092156;28;20737;-56
2022/10/22 00:12:32;;;;;;;4.80;0.80;;;14.30;1.00;;;;;;5091173;28;21032;-55
2022/10/22 00:14:57;;;;;;;4.40;0.60;;;14.30;1.00;;;;;;5092132;28;20371;-55
2022/10/22 00:17:23;;;;;;;4.40;0.70;;;14.40;1.00;;;;;;5091319;28;20779;-56
2022/10/22 00:19:49;;;;;;;4.15;0.70;;;14.50;1.00;;;;;;5091960;28;20778;-55
2022/10/22 00:22:14;;;;;;;4.80;0.80;;;14.40;1.00;;;;;;5091283;28;20389;-56
2022/10/22 00:24:40;;;;;;;3.80;0.60;;;14.30;1.00;;;;;;5092400;28;20377;-55
2022/10/22 00:27:08;;;;;;;4.68;0.60;;;14.30;1.00;;;;;;5091842;28;20443;-55
2022/10/22 00:29:34;;;;;;;5.18;0.60;;;14.40;1.00;;;;;;5091453;28;20370;-56
2022/10/22 00:31:59;;;;;;;3.92;0.70;;;14.40;1.00;;;;;;5090373;28;20418;-55
2022/10/22 00:34:25;;;;;;;5.10;0.60;;;14.50;1.00;;;;;;5090644;28;20390;-55
2022/10/22 00:36:51;;;;;;;3.60;0.50;;;14.40;1.00;;;;;;5091642;28;20418;-55
2022/10/22 00:39:19;;;;;;;4.25;0.50;;;14.30;58.00;;;;;;5090467;28;20716;-55
2022/10/22 00:41:47;;;;;;;4.25;0.50;;;14.40;47.60;;;;;;5091715;28;20382;-55
2022/10/22 00:44:50;;;;;;;4.10;0.70;;;14.40;27.70;;;;;;5091246;28;20370;-55
2022/10/22 00:47:17;;;;;;;3.70;0.60;;;14.30;49.10;;;;;;5091002;28;20476;-55
2022/10/22 00:49:44;;;;;;;4.00;0.60;;;14.30;50.80;;;;;;5091311;28;20370;-55
2022/10/22 00:52:10;;;;;;;3.88;0.57;;;14.30;5.40;;;;;;5091277;28;20398;-56
2022/10/22 00:54:37;;;;;;;3.60;0.50;;;14.40;9.70;;;;;;5090598;28;20373;-55
2022/10/22 00:57:03;;;;;;;6.70;0.60;;;14.40;1.00;;;;;;5091034;28;20388;-55
2022/10/22 00:59:28;;;;;;;3.70;0.60;;;14.40;1.00;;;;;;5090670;28;21199;-55
2022/10/22 01:01:54;;;;;;;3.80;0.50;;;14.40;1.00;;;;;;5091302;28;20386;-55
2022/10/22 01:04:20;;;;;;;3.90;1.00;;;14.30;30.50;;;;;;5090426;28;20835;-55
2022/10/22 01:06:46;;;;;;;3.60;0.40;;;14.40;33.30;;;;;;5091028;28;20401;-56
2022/10/22 01:09:46;;;;;;;3.73;0.50;;;14.40;1.00;;;;;;5090478;28;20815;-56
2022/10/22 01:12:27;;;;;;;3.57;0.40;;;14.30;11.30;;;;;;5089811;28;20443;-57
2022/10/22 01:15:13;;;;;;;3.70;0.50;;;14.30;21.10;;;;;;5091275;28;20386;-55
2022/10/22 01:18:00;;;;;;;3.90;0.60;;;14.20;53.80;;;;;;5090757;28;20406;-55
2022/10/22 01:20:37;;;;;;;3.90;0.60;;;14.10;94.50;;;;;;5090427;28;20854;-55
2022/10/22 01:23:21;;;;;;;4.75;0.60;;;14.20;85.60;;;;;;5091052;28;20378;-55
2022/10/22 01:25:55;;;;;;;3.80;0.50;;;14.20;75.60;;;;;;5090498;28;20452;-55
2022/10/22 01:28:48;;;;;;;4.40;0.70;;;14.30;54.00;;;;;;5080403;28;20622;-55
2022/10/22 01:31:16;;;;;;;3.95;0.55;;;14.30;39.10;;;;;;5069582;28;20911;-55
2022/10/22 01:33:45;;;;;;;5.20;0.80;;;14.40;1.00;;;;;;5070287;28;20435;-55
2022/10/22 01:36:13;;;;;;;3.80;0.50;;;14.40;1.00;;;;;;5070084;28;20375;-56
2022/10/22 01:38:40;;;;;;;4.50;0.70;;;14.40;1.00;;;;;;5070949;28;20859;-55
2022/10/22 01:41:06;;;;;;;3.90;0.60;;;14.50;1.00;;;;;;5070395;28;20869;-55
2022/10/22 01:43:32;;;;;;;3.80;0.50;;;14.50;1.00;;;;;;5069188;28;20459;-55
2022/10/22 01:46:01;;;;;;;4.88;0.60;;;14.50;1.00;;;;;;5071016;28;20459;-55
2022/10/22 01:48:53;;;;;;;4.40;1.20;;;14.50;1.00;;;;;;5070351;28;20394;-55
2022/10/22 01:51:31;;;;;;;4.80;0.65;;;14.40;1.00;;;;;;5068779;28;20524;-56
2022/10/22 01:54:32;;;;;;;4.60;0.80;;;14.50;1.00;;;;;;5069823;28;20380;-55
2022/10/22 01:57:25;;;;;;;5.25;0.60;;;14.40;1.00;;;;;;5070306;28;20549;-55
2022/10/22 02:00:02;;;;;;;4.13;0.60;;;14.50;1.00;;;;;;5069948;28;20442;-55
2022/10/22 02:02:48;;;;;;;3.78;0.50;;;14.50;1.00;;;;;;5069532;28;20876;-55
2022/10/22 02:05:22;;;;;;;5.35;0.60;;;14.50;1.00;;;;;;5069907;28;20395;-55
2022/10/22 02:07:56;;;;;;;4.18;0.60;;;14.60;1.00;;;;;;5070150;28;20714;-56
2022/10/22 02:10:23;;;;;;;4.38;0.50;;;14.60;1.00;;;;;;5069676;28;20411;-54
2022/10/22 02:12:52;;;;;;;4.15;0.40;;;14.80;1.00;;;;;;5070682;28;20380;-57
2022/10/22 02:15:20;;;;;;;4.00;0.60;;;14.80;1.00;;;;;;5069185;28;20371;-54
2022/10/22 02:17:47;;;;;;;3.97;0.50;;;14.80;1.00;;;;;;5070295;28;20849;-54
2022/10/22 02:20:20;;;;;;;4.10;0.60;;;14.90;1.00;;;;;;5069270;28;20391;-55
2022/10/22 02:22:46;;;;;;;3.90;0.50;;;14.90;1.00;;;;;;5069876;28;20391;-54
2022/10/22 02:25:14;;;;;;;5.10;0.60;;;14.90;1.00;;;;;;5069231;28;20760;-57
2022/10/22 02:28:03;;;;;;;3.90;0.50;;;15.00;1.00;;;;;;5070491;28;20372;-57
2022/10/22 02:30:31;;;;;;;4.20;0.50;;;15.00;1.00;;;;;;5069473;28;20710;-56
2022/10/22 02:33:06;;;;;;;3.85;0.60;;;14.90;1.00;;;;;;5069832;28;20500;-57
2022/10/22 02:35:32;;;;;;;4.78;0.80;;;14.80;1.00;;;;;;5069212;28;20414;-54
2022/10/22 02:37:59;;;;;;;3.90;0.70;;;14.60;1.00;;;;;;5069302;28;20584;-54
2022/10/22 02:40:26;;;;;;;5.22;0.70;;;14.40;1.00;;;;;;5068702;28;20795;-54
2022/10/22 02:42:52;;;;;;;4.00;0.60;;;14.50;1.00;;;;;;5069096;28;20506;-54
2022/10/22 02:45:19;;;;;;;4.90;0.60;;;14.40;7.50;;;;;;5069062;28;20442;-54
2022/10/22 02:47:45;;;;;;;3.83;0.57;;;14.50;15.90;;;;;;5069886;28;20376;-54
2022/10/22 02:50:10;;;;;;;5.20;0.60;;;14.50;1.00;;;;;;5069832;28;20403;-54
2022/10/22 02:52:37;;;;;;;4.40;0.67;;;14.50;1.00;;;;;;5068933;28;20384;-54
2022/10/22 02:55:03;;;;;;;3.63;0.50;;;14.50;1.00;;;;;;5072280;28;20398;-54
2022/10/22 02:57:28;;;;;;;4.70;0.70;;;14.60;1.00;;;;;;5073215;28;20383;-54
2022/10/22 02:59:54;;;;;;;3.93;0.70;;;14.60;1.00;;;;;;5073486;28;20372;-54
2022/10/22 03:02:20;;;;;;;6.80;0.70;;;14.60;1.00;;;;;;5071530;28;21007;-54
2022/10/22 03:04:45;;;;;;;4.30;0.60;;;14.50;1.00;;;;;;5073232;28;20392;-54
2022/10/22 03:07:11;;;;;;;4.17;0.60;;;14.50;1.00;;;;;;5073127;28;20698;-55
2022/10/22 03:09:36;;;;;;;3.78;0.50;;;14.50;1.00;;;;;;5073336;28;20409;-54
2022/10/22 03:12:02;;;;;;;4.10;0.80;;;14.60;1.00;;;;;;5072322;28;20502;-56
2022/10/22 03:14:28;;;;;;;4.40;0.60;;;14.60;1.00;;;;;;5072344;28;20375;-54
2022/10/22 03:16:54;;;;;;;6.00;0.70;;;14.70;1.00;;;;;;5072758;28;20441;-54
2022/10/22 03:19:19;;;;;;;4.00;0.63;;;14.80;1.00;;;;;;5072417;28;20819;-54
2022/10/22 03:21:49;;;;;;;3.97;0.70;;;14.90;1.00;;;;;;5072759;28;20865;-54
2022/10/22 03:24:46;;;;;;;4.20;0.70;;;14.90;1.00;;;;;;5072589;28;20396;-57
2022/10/22 03:27:15;;;;;;;4.00;0.60;;;14.90;1.00;;;;;;5056592;28;20414;-57
2022/10/22 03:29:42;;;;;;;6.70;0.63;;;14.90;1.00;;;;;;5072939;28;20470;-57
2022/10/22 03:32:07;;;;;;;3.70;0.50;;;14.80;1.00;;;;;;5072477;28;20423;-57
2022/10/22 03:34:33;;;;;;;3.90;0.60;;;14.70;1.00;;;;;;5071736;28;20391;-56
2022/10/22 03:37:00;;;;;;;4.10;0.80;;;14.70;1.00;;;;;;5072727;28;20391;-57
2022/10/22 03:39:29;;;;;;;4.38;0.88;;;14.70;1.00;;;;;;5072229;28;20471;-56
2022/10/22 03:41:55;;;;;;;3.95;0.60;;;14.80;1.00;;;;;;5071824;28;20734;-56
2022/10/22 03:44:21;;;;;;;4.00;0.60;;;14.80;1.00;;;;;;5071935;28;20379;-56
2022/10/22 03:46:47;;;;;;;5.00;0.60;;;14.80;1.00;;;;;;5072170;28;20375;-56
2022/10/22 03:49:13;;;;;;;5.00;0.70;;;14.80;1.00;;;;;;5071838;28;20379;-57
2022/10/22 03:51:38;;;;;;;4.75;0.60;;;14.70;1.00;;;;;;5071542;28;20449;-56
2022/10/22 03:54:05;;;;;;;3.90;0.60;;;14.70;1.00;;;;;;5072058;28;20437;-56
2022/10/22 03:56:31;;;;;;;4.53;0.80;;;14.80;1.00;;;;;;5071270;28;20430;-56
2022/10/22 03:58:57;;;;;;;5.97;0.80;;;14.70;1.00;;;;;;5071585;28;20419;-56
2022/10/22 04:01:23;;;;;;;5.60;0.80;;;14.60;1.00;;;;;;5070787;28;20815;-54
2022/10/22 04:03:49;;;;;;;3.90;0.65;;;14.40;1.00;;;;;;5071651;28;20412;-54
2022/10/22 04:06:15;;;;;;;4.60;0.77;;;14.40;1.00;;;;;;5070116;28;20414;-55
2022/10/22 04:08:43;;;;;;;5.40;0.70;;;14.40;1.00;;;;;;5071320;28;20810;-54
2022/10/22 04:11:09;;;;;;;4.10;0.70;;;14.40;1.00;;;;;;5071388;28;20403;-54
2022/10/22 04:13:35;;;;;;;4.60;0.85;;;14.60;1.00;;;;;;5070701;28;20380;-54
2022/10/22 04:16:09;;;;;;;4.23;0.97;;;14.50;1.00;;;;;;5071564;28;20391;-54
2022/10/22 04:18:35;;;;;;;4.18;0.80;;;14.60;1.00;;;;;;5070283;28;21118;-54
2022/10/22 04:21:01;;;;;;;4.20;0.70;;;14.50;1.00;;;;;;5071016;28;20467;-54
2022/10/22 04:23:26;;;;;;;4.60;0.60;;;14.50;1.00;;;;;;5070632;28;20382;-54
2022/10/22 04:25:58;;;;;;;4.45;0.70;;;14.50;1.00;;;;;;5071141;28;20459;-54
2022/10/22 04:28:23;;;;;;;4.00;0.63;;;14.50;1.00;;;;;;5070593;28;20395;-54
2022/10/22 04:30:49;;;;;;;6.63;0.90;;;14.50;1.00;;;;;;5071001;28;20761;-54
2022/10/22 04:33:14;;;;;;;4.00;0.50;;;14.40;1.00;;;;;;5070175;28;20412;-55
2022/10/22 04:35:40;;;;;;;4.00;0.60;;;14.30;1.00;;;;;;5070480;28;20726;-54
2022/10/22 04:38:05;;;;;;;4.67;0.70;;;14.30;1.00;;;;;;5071303;28;20485;-54
2022/10/22 04:40:31;;;;;;;5.03;0.70;;;14.30;1.00;;;;;;5070268;28;20386;-54
2022/10/22 04:42:56;;;;;;;3.70;0.60;;;14.30;1.00;;;;;;5070645;28;20800;-54
2022/10/22 04:45:22;;;;;;;4.40;0.63;;;14.20;1.00;;;;;;5069986;28;20383;-54
2022/10/22 04:47:48;;;;;;;4.50;0.80;;;14.20;1.00;;;;;;5070568;28;20386;-54
2022/10/22 04:50:13;;;;;;;5.23;0.60;;;14.20;1.00;;;;;;5070672;28;20442;-54
2022/10/22 04:52:39;;;;;;;3.90;0.70;;;14.20;1.00;;;;;;5070261;28;20384;-54
2022/10/22 04:55:05;;;;;;;4.60;0.90;;;14.40;1.00;;;;;;5070780;28;20725;-55
2022/10/22 04:57:31;;;;;;;3.80;0.60;;;14.30;1.00;;;;;;5069923;28;20499;-55
2022/10/22 04:59:57;;;;;;;4.53;0.60;;;14.30;1.00;;;;;;5070556;28;20384;-55
2022/10/22 05:02:22;;;;;;;3.80;0.60;;;14.30;1.00;;;;;;5085495;28;20799;-55
2022/10/22 05:04:48;;;;;;;5.90;0.70;;;14.30;1.00;;;;;;5074466;28;20737;-55
2022/10/22 05:07:14;;;;;;;4.28;0.60;;;14.20;1.00;;;;;;5070228;28;20380;-56
2022/10/22 05:09:40;;;;;;;3.80;0.60;;;14.10;17.00;;;;;;5069624;28;20376;-55
2022/10/22 05:12:05;;;;;;;5.28;0.65;;;14.10;1.00;;;;;;5070141;28;20809;-55
2022/10/22 05:14:32;;;;;;;3.90;0.60;;;14.00;66.10;;;;;;5069550;28;20388;-55
2022/10/22 05:16:57;;;;;;;5.40;0.70;;;14.10;63.50;;;;;;5070066;28;20380;-55
2022/10/22 05:19:25;;;;;;;4.10;0.77;;;14.00;66.10;;;;;;5069457;28;20386;-55
2022/10/22 05:21:53;;;;;;;5.70;0.70;;;14.00;58.80;;;;;;5070394;28;20431;-55
2022/10/22 05:24:19;;;;;;;4.10;0.80;;;14.00;53.80;;;;;;5074733;28;20425;-56
2022/10/22 05:26:47;;;;;;;4.63;0.60;;;14.00;28.10;;;;;;5090669;28;20470;-55
2022/10/22 05:29:13;;;;;;;4.57;0.47;;;14.10;50.80;;;;;;5090456;28;20378;-55
2022/10/22 05:31:39;;;;;;;4.00;0.70;;;14.00;31.30;;;;;;5088995;28;20474;-55
2022/10/22 05:34:05;;;;;;;3.90;0.60;;;14.00;81.80;;;;;;5090153;28;20873;-55
2022/10/22 05:36:31;;;;;;;5.47;0.90;;;14.10;82.70;;;;;;5089272;28;20374;-55
2022/10/22 05:38:57;;;;;;;6.07;0.80;;;14.00;65.20;;;;;;5090225;28;20385;-55
2022/10/22 05:41:24;;;;;;;5.30;0.73;;;14.00;93.40;;;;;;5089283;28;20382;-55
2022/10/22 05:43:54;;;;;;;4.13;0.60;;;14.10;75.90;;;;;;5090163;28;20452;-55
2022/10/22 05:46:21;;;;;;;3.70;0.60;;;14.20;56.00;;;;;;5089248;28;20398;-55
2022/10/22 05:48:50;;;;;;;3.80;0.60;;;14.20;1.00;;;;;;5089856;28;20739;-55
2022/10/22 05:51:16;;;;;;;4.80;0.80;;;14.40;1.00;;;;;;5089844;28;20435;-56
2022/10/22 05:53:42;;;;;;;4.37;0.90;;;14.40;1.00;;;;;;5089111;28;20391;-55
2022/10/22 05:56:13;;;;;;;4.30;0.82;;;14.30;1.00;;;;;;5089908;28;20381;-55
2022/10/22 05:58:39;;;;;;;3.78;0.55;;;14.20;1.00;;;;;;5088986;28;20451;-55
2022/10/22 06:01:14;;;;;;;4.00;0.70;;;14.30;1.00;;;;;;5086442;28;20450;-55
2022/10/22 06:03:40;;;;;;;4.20;0.80;;;14.30;1.00;;;;;;5078215;28;20481;-55
2022/10/22 06:06:41;;;;;;;6.00;0.90;;;14.30;1.00;;;;;;5082065;28;20386;-55
2022/10/22 06:09:18;;;;;;;4.80;0.70;;;14.50;1.00;;;;;;5070945;28;20495;-55
2022/10/22 06:11:46;;;;;;;5.70;1.00;;;14.40;1.00;;;;;;5070432;28;20408;-55
2022/10/22 06:14:12;;;;;;;4.00;0.80;;;14.40;1.00;;;;;;5088927;28;20473;-55
2022/10/22 06:16:38;;;;;;;6.18;0.90;;;14.40;1.00;;;;;;5088081;28;20843;-55
2022/10/22 06:19:03;;;;;;;7.60;1.58;;;14.40;1.00;;;;;;5088713;28;20390;-55
2022/10/22 06:21:30;;;;;;;4.77;0.97;;;14.30;1.00;;;;;;5087970;28;20805;-55
2022/10/22 06:23:57;;;;;;;4.40;0.68;;;14.20;1.00;;;;;;5088694;28;20427;-55
2022/10/22 06:26:23;;;;;;;5.60;1.30;;;14.30;1.00;;;;;;5087607;28;20381;-55
2022/10/22 06:28:49;;;;;;;3.90;0.65;;;14.30;1.00;;;;;;5087149;28;20780;-55
2022/10/22 06:31:14;;;;;;;3.88;0.70;;;14.40;1.00;;;;;;5092960;28;20495;-55
2022/10/22 06:33:43;;;;;;;4.03;0.75;;;14.50;1.00;;;;;;5091083;28;20990;-55
2022/10/22 06:36:15;;;;;;;4.20;0.70;;;14.60;1.00;;;;;;5074772;28;20386;-55
2022/10/22 06:38:41;;;;;;;4.40;0.60;;;14.80;1.00;;;;;;5092661;28;20424;-55
2022/10/22 06:41:15;;;;;;;4.50;0.63;;;14.90;1.00;;;;;;5083189;28;20905;-55
2022/10/22 06:43:45;;;;;;;4.00;0.73;;;15.00;1.00;;;;;;5083978;28;20937;-55
2022/10/22 06:46:13;;;;;;;6.32;0.80;;;15.20;1.00;;;;;;5077495;28;20395;-55
2022/10/22 06:48:39;;;;;;;4.70;1.20;;;15.30;99.90;;;;;;5072352;28;21087;-55
2022/10/22 06:51:08;;;;;;;5.60;0.82;;;15.40;99.90;;;;;;5075314;28;20492;-55
2022/10/22 06:53:34;;;;;;;4.32;0.90;;;15.50;99.90;;;;;;5072638;28;20883;-55
2022/10/22 06:56:11;;;;;;;5.00;1.10;;;15.50;99.90;;;;;;5075539;28;20456;-55
2022/10/22 06:58:37;;;;;;;5.63;1.10;;;15.70;99.90;;;;;;5073711;28;20394;-57
2022/10/22 07:01:14;;;;;;;6.70;1.20;;;15.80;99.90;;;;;;5083191;28;21186;-57
2022/10/22 07:03:41;;;;;;;5.40;1.50;;;15.90;99.90;;;;;;5079593;28;20906;-57
2022/10/22 07:06:09;;;;;;;5.90;2.10;;;15.80;99.90;;;;;;5076161;28;20387;-56
2022/10/22 07:08:35;;;;;;;6.90;1.30;;;15.90;99.90;;;;;;5071666;28;20876;-57
2022/10/22 07:11:10;;;;;;;5.30;1.05;;;16.00;99.90;;;;;;5073858;28;20451;-56
2022/10/22 07:13:36;;;;;;;4.97;1.05;;;16.00;1.00;;;;;;5091114;28;20620;-56
2022/10/22 07:16:02;;;;;;;4.63;0.90;;;16.10;1.00;;;;;;5092430;28;21020;-56
2022/10/22 07:18:28;;;;;;;5.00;1.10;;;16.20;1.00;;;;;;5081328;28;20881;-57
2022/10/22 07:20:54;;;;;;;5.50;1.00;;;16.50;1.00;;;;;;5092196;28;20378;-56
2022/10/22 07:23:20;;;;;;;4.90;1.20;;;16.60;1.00;;;;;;5091264;28;20475;-60
2022/10/22 07:25:45;;;;;;;6.43;0.83;;;16.80;1.00;;;;;;5074663;28;20407;-58
2022/10/22 07:28:11;;;;;;;5.80;0.90;;;17.00;99.90;;;;;;5082189;28;20464;-57
2022/10/22 07:30:37;;;;;;;5.72;0.90;;;17.00;1.00;;;;;;5082282;28;20419;-57
2022/10/22 07:33:03;;;;;;;4.88;0.77;;;17.00;93.90;;;;;;5083369;28;20903;-56
2022/10/22 07:35:29;;;;;;;4.95;1.00;;;17.00;99.90;;;;;;5088471;28;20378;-56
2022/10/22 07:37:55;;;;;;;5.47;0.97;;;17.10;1.00;;;;;;5073841;28;20880;-56
2022/10/22 07:40:20;;;;;;;4.60;0.80;;;17.10;1.00;;;;;;5091405;28;20386;-61
2022/10/22 07:42:46;;;;;;;6.53;1.00;;;17.30;1.00;;;;;;5091865;28;20393;-56
2022/10/22 07:45:11;;;;;;;4.90;0.80;;;17.30;1.00;;;;;;5078261;28;20400;-56
2022/10/22 07:47:37;;;;;;;4.30;0.80;;;17.30;99.90;;;;;;5076883;28;20399;-57
2022/10/22 07:50:03;;;;;;;5.20;0.82;;;17.50;99.90;;;;;;5077287;28;20421;-56
2022/10/22 07:52:29;;;;;;;5.00;0.90;;;17.50;51.50;;;;;;5083552;28;20844;-57
2022/10/22 07:54:54;;;;;;;4.70;0.90;;;17.70;41.70;;;;;;5084940;28;20535;-57
2022/10/22 07:57:20;;;;;;;5.80;0.90;;;18.20;1.00;;;;;;5082813;28;20409;-60
2022/10/22 07:59:46;;;;;;;4.70;1.00;;;;;;;;;;5088128;28;20424;-57
2022/10/22 08:02:12;;;;;;;4.78;0.88;;;;;;;;;;5085243;28;20399;-57
2022/10/22 08:04:38;;;;;;;4.70;0.90;;;;;;;;;;5081414;28;20400;-57
2022/10/22 08:07:04;;;;;;;5.00;0.90;;;22.90;1.00;;;;;;5082247;28;20379;-58
2022/10/22 08:09:30;;;;;;;6.40;0.70;;;22.60;1.00;;;;;;5079773;28;20488;-57
2022/10/22 08:11:56;;;;;;;5.75;0.85;;;23.00;1.00;;;;;;5082287;28;20410;-58
2022/10/22 08:14:21;;;;;;;5.00;0.90;;;23.90;1.00;;;;;;5081679;28;20500;-62
2022/10/22 08:16:47;;;;;;;4.80;0.70;;;23.60;1.00;;;;;;5083920;28;20392;-57
2022/10/22 08:19:17;;;;;;;4.60;0.70;;;23.90;1.00;;;;;;5084917;28;20410;-57
2022/10/22 08:21:44;;;;;;;5.60;0.90;;;24.20;1.00;;;;;;5070883;28;20395;-57
2022/10/22 08:24:10;;;;;;;4.70;0.80;;;25.00;1.00;;;;;;5070618;28;20384;-57
2022/10/22 08:26:36;;;;;;;6.80;0.93;;;24.30;1.00;;;;;;5094265;28;20431;-57
2022/10/22 08:29:02;;;;;;;6.90;0.90;;;24.20;1.00;;;;;;5091181;28;20852;-59
2022/10/22 08:31:27;;;;;;;5.57;1.00;;;25.20;1.00;;;;;;5089902;28;21039;-58
2022/10/22 08:33:53;;;;;;;5.00;1.50;;;25.90;1.00;;;;;;5091084;28;20878;-58
2022/10/22 08:36:18;;;;;;;7.47;4.13;;;26.80;1.00;;;;;;5090464;28;20389;-63
2022/10/22 08:38:44;;;;;;;5.80;4.15;;;27.80;1.00;;;;;;5082097;28;20475;-58
2022/10/22 08:41:16;;;;;;;6.00;5.40;;;27.90;1.00;;;;;;5078450;28;20439;-61
2022/10/22 08:43:57;;;;;;;6.28;3.88;;;27.00;1.00;;;;;;5084634;28;20495;-58
2022/10/22 08:46:34;;;;;;;5.53;3.95;;;26.40;1.00;;;;;;5075779;28;20425;-58
2022/10/22 08:49:02;;;;;;;7.90;4.70;;;26.60;1.00;;;;;;5086348;28;20484;-59
2022/10/22 08:51:39;;;;;;;5.90;4.30;;;26.30;1.00;;;;;;5095933;28;20396;-58
2022/10/22 08:54:07;;;;;;;8.93;6.40;;;27.20;1.00;;;;;;5092105;28;20467;-58
2022/10/22 08:56:35;;;;;;;8.05;6.20;;;28.20;1.00;;;;;;5090561;28;20434;-58
2022/10/22 08:59:11;;;;;;;8.70;7.80;;;28.60;1.00;;;;;;5086649;28;20756;-58
2022/10/22 09:01:45;;;;;;;8.13;7.32;;;28.70;1.00;;;;;;5095533;28;20394;-58
2022/10/22 09:04:24;;;;;;;6.80;6.20;;;29.10;1.00;;;;;;5090984;28;20404;-60
2022/10/22 09:06:51;;;;;;;6.60;5.90;;;28.90;99.90;;;;;;5090476;28;20398;-58
2022/10/22 09:09:18;;;;;;;6.13;3.70;;;28.40;99.90;;;;;;5070085;28;20962;-59
2022/10/22 09:11:48;;;;;;;14.70;8.53;;;27.00;99.90;;;;;;5096634;28;20411;-58
2022/10/22 09:14:17;;;;;;;5.87;3.77;;;27.50;99.90;;;;;;5099325;28;20893;-58
2022/10/22 09:16:58;;;;;;;5.30;3.10;;;26.70;99.90;;;;;;5089329;28;20389;-58
2022/10/22 09:19:51;;;;;;;5.55;3.60;;;26.80;99.90;;;;;;5087535;28;20394;-58
2022/10/22 09:22:41;;;;;;;6.55;3.60;;;26.80;99.90;;;;;;5080365;28;20394;-58
2022/10/22 09:25:27;;;;;;;7.60;3.30;;;26.70;99.90;;;;;;5088233;28;20878;-58
2022/10/22 09:27:57;;;;;;;6.30;3.15;;;26.90;99.90;;;;;;5088196;28;20737;-58
2022/10/22 09:30:26;;;;;;;6.10;2.80;;;27.00;99.90;;;;;;5076744;28;20409;-58
2022/10/22 09:33:16;;;;;;;5.10;2.80;;;27.10;99.90;;;;;;5073208;28;20412;-57
2022/10/22 09:36:02;;;;;;;6.78;2.38;;;26.70;99.90;;;;;;5068821;28;20553;-57
2022/10/22 09:38:30;;;;;;;5.60;3.30;;;27.30;99.90;;;;;;5069330;28;20384;-58
2022/10/22 09:40:59;;;;;;;6.43;3.03;;;27.10;99.90;;;;;;5071703;28;20391;-58
2022/10/22 09:43:24;;;;;;;5.35;2.70;;;26.70;99.90;;;;;;5069071;28;20411;-58
2022/10/22 09:45:59;;;;;;;5.20;2.20;;;26.90;99.90;;;;;;5074754;28;20863;-57
2022/10/22 09:48:40;;;;;;;8.90;1.70;;;25.40;99.90;;;;;;5088647;28;20712;-58
2022/10/22 09:51:15;;;;;;;4.90;1.80;;;25.40;99.90;;;;;;5089787;28;20413;-57
2022/10/22 09:53:43;;;;;;;4.70;1.20;;;24.80;99.90;;;;;;5089115;28;20367;-57
2022/10/22 09:56:36;;;;;;;5.80;1.42;;;25.30;99.90;;;;;;5089839;28;20381;-57
2022/10/22 09:59:02;;;;;;;5.70;1.30;;;25.50;99.90;;;;;;5088820;28;20390;-57
2022/10/22 10:01:34;;;;;;;5.30;1.35;;;25.60;99.90;;;;;;5088863;28;20467;-57
2022/10/22 10:04:18;;;;;;;4.93;1.40;;;26.30;99.90;;;;;;5088823;28;20377;-57
2022/10/22 10:06:44;;;;;;;5.18;1.60;;;26.10;99.90;;;;;;5088839;28;20463;-57
2022/10/22 10:09:17;;;;;;;4.70;1.33;;;26.20;99.90;;;;;;5089804;28;20676;-57
2022/10/22 10:12:04;;;;;;;5.10;1.35;;;26.10;99.90;;;;;;5088378;28;20410;-57
2022/10/22 10:14:45;;;;;;;4.70;1.40;;;25.80;99.90;;;;;;5094986;28;20380;-57
2022/10/22 10:17:38;;;;;;;5.40;1.50;;;25.60;99.90;;;;;;5089772;28;20397;-57
2022/10/22 10:20:28;;;;;;;4.80;1.30;;;25.30;99.90;;;;;;5089930;28;20382;-57
2022/10/22 10:23:07;;;;;;;4.60;1.20;;;25.10;99.90;;;;;;5089898;28;20394;-57
2022/10/22 10:25:36;;;;;;;4.80;1.25;;;25.30;99.90;;;;;;5088498;28;20385;-57
2022/10/22 10:28:25;;;;;;;5.10;1.20;;;25.80;99.90;;;;;;5089720;28;20382;-57
2022/10/22 10:31:01;;;;;;;7.40;1.20;;;26.40;99.90;;;;;;5089311;28;20799;-57
2022/10/22 10:33:41;;;;;;;5.10;1.20;;;26.80;99.90;;;;;;5088884;28;20398;-58
2022/10/22 10:36:28;;;;;;;4.60;1.00;;;27.00;99.90;;;;;;5089727;28;20461;-58
2022/10/22 10:39:22;;;;;;;5.03;1.50;;;27.50;99.90;;;;;;5092717;28;20876;-57
2022/10/22 10:42:16;;;;;;;5.10;1.13;;;26.50;99.90;;;;;;5087870;28;20398;-57
2022/10/22 10:45:16;;;;;;;5.60;1.30;;;26.50;99.90;;;;;;5088798;28;20494;-57
2022/10/22 10:47:52;;;;;;;5.00;1.30;;;26.40;99.90;;;;;;5086558;28;21066;-58
2022/10/22 10:50:50;;;;;;;5.15;1.63;;;27.00;99.90;;;;;;5089851;28;20389;-58
2022/10/22 10:53:35;;;;;;;6.90;3.30;;;28.20;99.90;;;;;;5082597;28;20485;-58
2022/10/22 10:56:17;;;;;;;7.10;3.20;;;28.20;99.90;;;;;;5079909;28;20736;-58
2022/10/22 10:58:52;;;;;;;6.78;2.10;;;27.50;99.90;;;;;;5077453;28;21035;-58
2022/10/22 11:01:38;;;;;;;6.97;1.50;;;26.20;99.90;;;;;;5075748;28;20453;-58
2022/10/22 11:04:23;;;;;;;6.55;1.50;;;24.70;99.90;;;;;;5076093;28;20461;-57
2022/10/22 11:06:52;;;;;;;4.90;1.25;;;24.10;99.90;;;;;;5081421;28;20388;-57
2022/10/22 11:09:28;;;;;;;6.03;1.30;;;23.90;99.90;;;;;;5084234;28;20438;-58
2022/10/22 11:12:04;;;;;;;5.80;1.40;;;24.30;99.90;;;;;;5077527;28;20895;-58
2022/10/22 11:14:38;;;;;;;5.65;1.70;;;24.60;99.90;;;;;;5087774;28;20376;-58
2022/10/22 11:17:12;;;;;;;5.15;1.30;;;24.60;99.90;;;;;;5079457;28;20396;-57
2022/10/22 11:20:11;;;;;;;5.20;1.30;;;24.30;99.90;;;;;;5081310;28;20915;-58
2022/10/22 11:22:43;;;;;;;6.43;1.50;;;24.20;99.90;;;;;;5014935;28;20397;-58
2022/10/22 11:25:11;;;;;;;4.60;0.93;;;23.90;99.90;;;;;;5081531;28;20941;-58
2022/10/22 11:27:55;;;;;;;4.80;1.40;;;23.60;99.90;;;;;;5078586;28;20804;-57
2022/10/22 11:30:23;;;;;;;4.60;0.98;;;23.30;99.90;;;;;;5086229;28;20422;-58
2022/10/22 11:32:53;;;;;;;6.65;1.30;;;23.20;99.90;;;;;;5092567;28;20439;-57
2022/10/22 11:35:29;;;;;;;6.10;1.25;;;23.10;99.90;;;;;;5086539;28;20504;-57
2022/10/22 11:37:56;;;;;;;5.10;1.10;;;23.00;99.90;;;;;;5082790;28;20433;-58
2022/10/22 11:40:34;;;;;;;5.50;1.10;;;23.00;99.90;;;;;;5077076;28;20617;-58
2022/10/22 11:43:24;;;;;;;5.40;0.80;;;23.10;99.90;;;;;;5083125;28;20473;-57
2022/10/22 11:46:07;;;;;;;5.50;1.10;;;23.30;99.90;;;;;;5083362;28;20374;-57
2022/10/22 11:48:37;;;;;;;6.38;0.90;;;23.20;99.90;;;;;;5080103;28;20406;-57
2022/10/22 11:51:23;;;;;;;5.07;1.00;;;23.30;99.90;;;;;;5073595;28;20506;-57
2022/10/22 11:53:57;;;;;;;5.20;0.90;;;23.30;99.90;;;;;;5071156;28;20394;-57
2022/10/22 11:56:36;;;;;;;5.35;1.10;;;23.50;99.90;;;;;;5074523;28;20729;-59
2022/10/22 11:59:02;;;;;;;5.65;0.98;;;24.30;99.90;;;;;;5078808;28;20431;-56
2022/10/22 12:01:40;;;;;;;5.88;1.10;;;23.50;99.90;;;;;;5071291;28;20391;-57
2022/10/22 12:04:21;;;;;;;5.35;0.95;;;23.30;99.90;;;;;;5071071;28;20767;-57
2022/10/22 12:07:00;;;;;;;4.97;1.00;;;23.20;99.90;;;;;;5070808;28;20478;-57
2022/10/22 12:09:29;;;;;;;5.40;1.00;;;23.40;99.90;;;;;;5086229;28;20419;-58
2022/10/22 12:12:03;;;;;;;5.20;1.00;;;23.40;99.90;;;;;;5074480;28;20505;-57
2022/10/22 12:14:36;;;;;;;5.50;1.00;;;23.00;99.90;;;;;;5094762;28;20380;-57
2022/10/22 12:17:14;;;;;;;5.82;1.10;;;23.20;99.90;;;;;;5092093;28;20385;-57
2022/10/22 12:19:43;;;;;;;5.65;1.20;;;23.20;99.90;;;;;;5100594;28;20376;-57
2022/10/22 12:22:24;;;;;;;5.88;1.00;;;23.30;99.90;;;;;;5092645;28;20394;-57
2022/10/22 12:24:56;;;;;;;7.90;0.90;;;23.50;99.90;;;;;;5086509;28;20873;-57
2022/10/22 12:27:22;;;;;;;6.13;1.40;;;23.50;99.90;;;;;;5097719;28;20381;-58
2022/10/22 12:29:48;;;;;;;4.90;0.90;;;23.40;99.90;;;;;;5101091;28;20443;-57
2022/10/22 12:32:15;;;;;;;5.80;0.87;;;23.40;99.90;;;;;;5094317;28;20457;-57
2022/10/22 12:34:51;;;;;;;5.90;1.10;;;23.40;99.90;;;;;;5093214;28;20390;-57
2022/10/22 12:37:18;;;;;;;4.80;0.80;;;23.10;99.90;;;;;;5106192;28;20380;-57
2022/10/22 12:39:45;;;;;;;5.90;1.20;;;22.70;99.90;;;;;;5093486;28;20374;-56
2022/10/22 12:42:16;;;;;;;5.43;1.00;;;22.30;99.90;;;;;;5092719;28;20388;-57
2022/10/22 12:44:43;;;;;;;6.70;1.55;;;22.30;99.90;;;;;;5084830;28;20514;-58
2022/10/22 12:47:16;;;;;;;4.90;1.10;;;22.30;99.90;;;;;;5071879;28;20380;-57
2022/10/22 12:49:48;;;;;;;4.70;0.90;;;22.60;99.90;;;;;;5068216;28;20713;-57
2022/10/22 12:52:18;;;;;;;5.22;1.10;;;22.80;99.90;;;;;;5081404;28;20437;-57
2022/10/22 12:54:46;;;;;;;6.10;1.00;;;22.90;99.90;;;;;;5075275;28;20400;-57
2022/10/22 12:57:15;;;;;;;4.95;1.10;;;23.00;99.90;;;;;;5082034;28;20389;-57
2022/10/22 12:59:45;;;;;;;6.20;1.10;;;23.10;99.90;;;;;;5051297;28;20757;-56
2022/10/22 13:02:20;;;;;;;5.88;1.10;;;23.20;99.90;;;;;;5069672;28;20399;-56
2022/10/22 13:05:14;;;;;;;6.93;1.20;;;23.30;99.90;;;;;;5073527;28;20409;-56
2022/10/22 13:07:42;;;;;;;5.20;1.10;;;23.40;99.90;;;;;;5083891;28;20456;-56
2022/10/22 13:10:29;;;;;;;4.80;1.20;;;23.20;99.90;;;;;;5079513;28;20417;-56
2022/10/22 13:12:56;;;;;;;5.55;1.27;;;23.00;99.90;;;;;;5085111;28;20416;-57